Time;durP1;ratioP1;P1;durP2;ratioP2;P2;SDS_P1;SDS_P2;PMS_P1;PMS_P2;Temp;Humidity;BMP_temperature;BMP_pressure;BME280_temperature;BME280_humidity;BME280_pressure;Samples;Min_cycle;Max_cycle;Signal;HPM_P1;HPM_P2
2021/08/06 00:00:54;;;;;;;2.70;1.63;;;;;;;;;;5045885;28;20022;-94
2021/08/06 00:03:20;;;;;;;4.18;1.55;;;;;;;;;;5053153;28;20046;-92
2021/08/06 00:05:45;;;;;;;5.32;2.22;;;;;;;;;;5017980;28;20440;-93
2021/08/06 00:08:10;;;;;;;3.05;1.60;;;;;;;;;;5024923;28;20436;-94
2021/08/06 00:10:35;;;;;;;3.83;1.88;;;;;;;;;;5015475;28;20057;-94
2021/08/06 00:13:00;;;;;;;2.78;1.60;;;;;;;;;;5014999;28;20543;-93
2021/08/06 00:15:26;;;;;;;2.88;1.45;;;;;;;;;;5017771;28;20026;-93
2021/08/06 00:17:51;;;;;;;5.88;1.60;;;;;;;;;;5012322;28;20025;-93
2021/08/06 00:20:16;;;;;;;3.28;1.70;;;;;;;;;;5012136;28;20018;-93
2021/08/06 00:22:41;;;;;;;2.13;1.20;;;;;;;;;;5012736;28;20029;-94
2021/08/06 00:25:07;;;;;;;1.50;0.95;;;;;;;;;;5015738;28;20017;-93
2021/08/06 00:27:32;;;;;;;2.35;1.15;;;;;;;;;;5016015;28;20022;-93
2021/08/06 00:30:00;;;;;;;2.45;0.98;;;;;;;;;;5017433;28;20032;-93
2021/08/06 00:32:26;;;;;;;2.13;1.33;;;;;;;;;;5016530;28;20018;-93
2021/08/06 00:34:51;;;;;;;4.65;1.20;;;;;;;;;;5023357;28;20033;-94
2021/08/06 00:37:16;;;;;;;1.95;1.10;;;;;;;;;;5028660;28;20104;-93
2021/08/06 00:39:41;;;;;;;2.22;1.10;;;;;;;;;;5018617;28;20029;-94
2021/08/06 00:42:06;;;;;;;2.17;1.10;;;;;;;;;;5023726;28;20034;-93
2021/08/06 00:44:32;;;;;;;3.40;1.30;;;;;;;;;;5026761;28;20053;-93
2021/08/06 00:46:57;;;;;;;1.58;0.90;;;;;;;;;;5015957;28;20120;-94
2021/08/06 00:49:22;;;;;;;3.10;0.95;;;;;;;;;;5015870;28;20034;-93
2021/08/06 00:51:47;;;;;;;2.03;1.10;;;;;;;;;;5025892;28;20418;-93
2021/08/06 00:54:15;;;;;;;1.63;1.00;;;;;;;;;;5023674;28;20030;-93
2021/08/06 00:56:40;;;;;;;2.75;1.02;;;;;;;;;;5016613;28;20105;-94
2021/08/06 00:59:06;;;;;;;1.40;1.00;;;;;;;;;;5025432;28;20057;-93
2021/08/06 01:01:32;;;;;;;1.75;1.13;;;;;;;;;;5015594;28;20029;-93
2021/08/06 01:04:23;;;;;;;4.63;0.93;;;;;;;;;;5018166;28;20048;-93
2021/08/06 01:06:56;;;;;;;1.38;0.95;;;;;;;;;;5016998;28;20028;-94
2021/08/06 01:09:39;;;;;;;2.60;1.25;;;;;;;;;;5020256;28;20030;-94
2021/08/06 01:12:05;;;;;;;2.40;1.20;;;;;;;;;;5020769;28;20374;-94
2021/08/06 01:14:33;;;;;;;3.60;1.52;;;;;;;;;;5019221;28;20036;-94
2021/08/06 01:16:59;;;;;;;1.42;1.02;;;;;;;;;;5022822;28;20014;-93
2021/08/06 01:19:30;;;;;;;3.30;1.38;;;;;;;;;;5019724;28;20400;-93
2021/08/06 01:22:15;;;;;;;3.35;1.08;;;;;;;;;;5015347;28;20527;-93
2021/08/06 01:24:42;;;;;;;2.13;1.17;;;;;;;;;;5015024;28;20034;-94
2021/08/06 01:27:08;;;;;;;1.95;1.10;;;;;;;;;;5025487;28;20041;-93
2021/08/06 01:29:33;;;;;;;1.98;1.10;;;;;;;;;;5021481;28;20025;-93
2021/08/06 01:31:58;;;;;;;6.10;1.10;;;;;;;;;;5020064;28;20057;-94
2021/08/06 01:34:24;;;;;;;3.35;0.85;;;;;;;;;;5014550;28;20037;-94
2021/08/06 01:36:49;;;;;;;2.92;1.08;;;;;;;;;;5014401;28;20018;-93
2021/08/06 01:39:15;;;;;;;2.50;1.15;;;;;;;;;;5017107;28;20014;-93
2021/08/06 01:41:48;;;;;;;2.55;1.20;;;;;;;;;;5020957;28;20102;-94
2021/08/06 01:44:20;;;;;;;3.15;1.10;;;;;;;;;;5016546;28;20036;-94
2021/08/06 01:46:53;;;;;;;1.40;1.10;;;;;;;;;;5014939;28;20033;-93
2021/08/06 01:49:22;;;;;;;3.03;1.08;;;;;;;;;;5014699;28;20326;-94
2021/08/06 01:51:49;;;;;;;1.95;1.30;;;;;;;;;;5011235;28;20029;-94
2021/08/06 01:54:16;;;;;;;1.55;1.13;;;;;;;;;;5028647;28;20072;-93
2021/08/06 01:56:41;;;;;;;2.10;0.90;;;;;;;;;;5015779;28;20076;-94
2021/08/06 01:59:07;;;;;;;2.47;1.23;;;;;;;;;;5014256;28;20026;-93
2021/08/06 02:01:32;;;;;;;2.03;1.08;;;;;;;;;;5022326;28;20484;-95
2021/08/06 02:03:58;;;;;;;2.70;1.20;;;;;;;;;;5014461;28;20076;-94
2021/08/06 02:06:23;;;;;;;1.63;1.00;;;;;;;;;;5014376;28;20030;-93
2021/08/06 02:08:49;;;;;;;1.90;1.23;;;;;;;;;;5022101;28;20022;-94
2021/08/06 02:11:18;;;;;;;2.13;1.10;;;;;;;;;;5014539;28;20431;-95
2021/08/06 02:13:43;;;;;;;1.63;1.20;;;;;;;;;;5014268;28;20474;-94
2021/08/06 02:16:09;;;;;;;1.58;1.10;;;;;;;;;;5019767;28;20013;-93
2021/08/06 02:18:35;;;;;;;3.88;0.90;;;;;;;;;;5014279;28;20018;-94
2021/08/06 02:21:04;;;;;;;3.25;1.10;;;;;;;;;;5013874;28;20342;-94
2021/08/06 02:23:31;;;;;;;1.90;0.93;;;;;;;;;;5017827;28;20025;-94
2021/08/06 02:25:58;;;;;;;1.00;0.85;;;;;;;;;;5014090;28;20060;-94
2021/08/06 02:28:24;;;;;;;1.58;1.08;;;;;;;;;;5016218;28;20018;-94
2021/08/06 02:30:50;;;;;;;2.08;0.80;;;;;;;;;;5020376;28;20025;-93
2021/08/06 02:33:16;;;;;;;2.40;1.20;;;;;;;;;;5022120;28;20075;-94
2021/08/06 02:35:41;;;;;;;1.77;1.08;;;;;;;;;;5021727;28;20025;-93
2021/08/06 02:38:06;;;;;;;1.63;1.20;;;;;;;;;;5014019;28;20049;-95
2021/08/06 02:40:32;;;;;;;1.50;0.90;;;;;;;;;;5013326;28;20117;-93
2021/08/06 02:42:57;;;;;;;2.28;1.33;;;;;;;;;;5018307;28;20048;-95
2021/08/06 02:45:22;;;;;;;1.98;1.10;;;;;;;;;;5018146;28;20037;-93
2021/08/06 02:47:47;;;;;;;1.10;0.82;;;;;;;;;;5012932;28;20017;-93
2021/08/06 02:50:13;;;;;;;1.90;0.90;;;;;;;;;;5019363;28;20470;-94
2021/08/06 02:52:38;;;;;;;2.00;0.93;;;;;;;;;;5015254;28;20022;-94
2021/08/06 02:55:04;;;;;;;5.25;0.90;;;;;;;;;;5013223;28;20036;-93
2021/08/06 02:57:29;;;;;;;2.67;1.08;;;;;;;;;;5019347;28;20446;-93
2021/08/06 02:59:54;;;;;;;3.38;1.02;;;;;;;;;;5025896;28;20030;-95
2021/08/06 03:02:20;;;;;;;1.33;1.00;;;;;;;;;;5013328;28;20029;-94
2021/08/06 03:04:45;;;;;;;1.83;1.00;;;;;;;;;;5021592;28;20026;-94
2021/08/06 03:07:10;;;;;;;2.92;0.90;;;;;;;;;;5013496;28;20064;-93
2021/08/06 03:09:38;;;;;;;4.85;0.90;;;;;;;;;;5019493;28;20018;-93
2021/08/06 03:12:04;;;;;;;1.95;1.02;;;;;;;;;;5021778;28;20052;-93
2021/08/06 03:14:29;;;;;;;1.80;1.02;;;;;;;;;;5013037;28;20026;-94
2021/08/06 03:16:54;;;;;;;1.55;0.95;;;;;;;;;;5023969;28;20022;-93
2021/08/06 03:19:19;;;;;;;1.15;0.95;;;;;;;;;;5018393;28;20064;-93
2021/08/06 03:21:45;;;;;;;4.22;1.00;;;;;;;;;;5013891;28;20018;-93
2021/08/06 03:24:10;;;;;;;1.27;0.80;;;;;;;;;;5021509;28;20021;-94
2021/08/06 03:26:35;;;;;;;1.58;0.90;;;;;;;;;;5012572;28;20116;-93
2021/08/06 03:29:00;;;;;;;3.35;1.20;;;;;;;;;;5021158;28;20025;-94
2021/08/06 03:31:25;;;;;;;3.35;1.00;;;;;;;;;;5025988;28;20033;-93
2021/08/06 03:33:51;;;;;;;3.08;0.98;;;;;;;;;;5012964;28;20380;-93
2021/08/06 03:36:16;;;;;;;2.13;1.13;;;;;;;;;;5020833;28;20549;-94
2021/08/06 03:38:42;;;;;;;1.75;1.00;;;;;;;;;;5013659;28;20056;-93
2021/08/06 03:41:07;;;;;;;2.58;1.20;;;;;;;;;;5014461;28;20109;-94
2021/08/06 03:43:32;;;;;;;1.52;1.00;;;;;;;;;;5028694;28;20032;-92
2021/08/06 03:45:57;;;;;;;2.03;1.02;;;;;;;;;;5012071;28;20050;-95
2021/08/06 03:48:22;;;;;;;2.67;1.02;;;;;;;;;;5016382;28;20532;-93
2021/08/06 03:50:48;;;;;;;2.25;1.05;;;;;;;;;;5022770;28;20369;-93
2021/08/06 03:53:13;;;;;;;1.77;1.05;;;;;;;;;;5020196;28;20076;-93
2021/08/06 03:55:38;;;;;;;1.95;1.23;;;;;;;;;;5020347;28;20096;-93
2021/08/06 03:58:03;;;;;;;2.00;1.10;;;;;;;;;;5019761;28;20153;-94
2021/08/06 04:00:34;;;;;;;2.42;1.15;;;;;;;;;;5017396;28;20022;-94
2021/08/06 04:02:59;;;;;;;7.60;1.45;;;;;;;;;;5012538;28;20021;-93
2021/08/06 04:05:24;;;;;;;2.08;1.30;;;;;;;;;;5018159;28;20028;-93
2021/08/06 04:07:50;;;;;;;4.50;1.50;;;;;;;;;;5020377;28;20022;-93
2021/08/06 04:10:16;;;;;;;1.48;1.20;;;;;;;;;;5027043;28;20029;-93
2021/08/06 04:12:42;;;;;;;1.35;1.05;;;;;;;;;;5012374;28;20022;-94
2021/08/06 04:15:07;;;;;;;3.40;1.48;;;;;;;;;;5012217;28;20121;-95
2021/08/06 04:17:33;;;;;;;2.75;1.20;;;;;;;;;;5012785;28;20353;-94
2021/08/06 04:19:58;;;;;;;2.00;1.60;;;;;;;;;;5012303;28;20021;-94
2021/08/06 04:22:24;;;;;;;2.30;1.48;;;;;;;;;;5012075;28;20022;-94
2021/08/06 04:24:49;;;;;;;2.78;1.20;;;;;;;;;;5020542;28;20029;-94
2021/08/06 04:27:14;;;;;;;5.47;1.95;;;;;;;;;;5012294;28;20173;-93
2021/08/06 04:29:40;;;;;;;4.10;1.85;;;;;;;;;;5012137;28;20033;-94
2021/08/06 04:32:05;;;;;;;3.83;1.40;;;;;;;;;;5012768;28;20205;-93
2021/08/06 04:34:30;;;;;;;3.35;1.60;;;;;;;;;;5021824;28;20048;-94
2021/08/06 04:36:55;;;;;;;4.03;1.50;;;;;;;;;;5015098;28;20076;-94
2021/08/06 04:39:21;;;;;;;3.35;1.60;;;;;;;;;;5019734;28;20443;-93
2021/08/06 04:41:48;;;;;;;1.58;1.00;;;;;;;;;;5011994;28;20026;-94
2021/08/06 04:44:13;;;;;;;3.15;1.00;;;;;;;;;;5012327;28;20030;-93
2021/08/06 04:46:39;;;;;;;1.70;1.20;;;;;;;;;;5021606;28;20132;-94
2021/08/06 04:49:04;;;;;;;2.65;1.20;;;;;;;;;;5012662;28;20022;-93
2021/08/06 04:51:29;;;;;;;1.63;1.02;;;;;;;;;;5012130;28;20125;-93
2021/08/06 04:53:54;;;;;;;2.65;0.90;;;;;;;;;;5020458;28;20046;-94
2021/08/06 04:56:20;;;;;;;1.83;1.13;;;;;;;;;;5012139;28;20025;-93
2021/08/06 04:58:45;;;;;;;1.33;0.82;;;;;;;;;;5011872;28;20022;-93
2021/08/06 05:01:10;;;;;;;2.30;1.05;;;;;;;;;;5023434;28;20013;-94
2021/08/06 05:03:35;;;;;;;3.92;1.00;;;;;;;;;;5016219;28;20153;-94
2021/08/06 05:06:01;;;;;;;1.60;0.95;;;;;;;;;;5011997;28;20394;-94
2021/08/06 05:08:26;;;;;;;3.03;0.85;;;;;;;;;;5012592;28;20080;-93
2021/08/06 05:10:51;;;;;;;1.92;0.90;;;;;;;;;;5017144;28;20033;-94
2021/08/06 05:13:16;;;;;;;3.22;1.05;;;;;;;;;;5015378;28;20029;-93
2021/08/06 05:15:42;;;;;;;1.80;1.00;;;;;;;;;;5023007;28;20420;-94
2021/08/06 05:18:07;;;;;;;1.35;1.00;;;;;;;;;;5015312;28;20040;-93
2021/08/06 05:20:33;;;;;;;1.80;0.98;;;;;;;;;;5015448;28;20531;-94
2021/08/06 05:22:58;;;;;;;3.75;1.25;;;;;;;;;;5022064;28;20306;-95
2021/08/06 05:25:23;;;;;;;2.17;1.10;;;;;;;;;;5018998;28;20091;-94
2021/08/06 05:27:48;;;;;;;8.32;1.27;;;;;;;;;;5015643;28;20029;-94
2021/08/06 05:30:14;;;;;;;4.07;1.40;;;;;;;;;;5023374;28;20112;-93
2021/08/06 05:32:39;;;;;;;1.27;1.10;;;;;;;;;;5017352;28;20034;-93
2021/08/06 05:35:04;;;;;;;2.85;1.08;;;;;;;;;;5016385;28;20465;-93
2021/08/06 05:37:30;;;;;;;4.45;1.13;;;;;;;;;;5052238;28;20469;-93
2021/08/06 05:39:55;;;;;;;1.55;0.90;;;;;;;;;;5016732;28;20029;-95
2021/08/06 05:42:20;;;;;;;2.25;1.15;;;;;;;;;;5021614;28;20018;-93
2021/08/06 05:44:46;;;;;;;2.65;1.20;;;;;;;;;;5015096;28;20034;-94
2021/08/06 05:47:11;;;;;;;2.83;1.38;;;;;;;;;;5019510;28;20057;-94
2021/08/06 05:49:36;;;;;;;1.38;0.93;;;;;;;;;;5025789;28;20112;-94
2021/08/06 05:52:02;;;;;;;2.25;1.02;;;;;;;;;;5015387;28;20064;-94
2021/08/06 05:54:27;;;;;;;2.58;1.25;;;;;;;;;;5027595;28;20408;-93
2021/08/06 05:56:52;;;;;;;1.52;1.10;;;;;;;;;;5015362;28;20040;-94
2021/08/06 05:59:17;;;;;;;2.03;1.20;;;;;;;;;;5017063;28;20429;-93
2021/08/06 06:01:42;;;;;;;3.33;1.52;;;;;;;;;;5029373;28;20025;-94
2021/08/06 06:04:08;;;;;;;5.43;1.50;;;;;;;;;;5017079;28;20053;-93
2021/08/06 06:06:33;;;;;;;2.65;1.33;;;;;;;;;;5014743;28;20018;-94
2021/08/06 06:08:59;;;;;;;2.03;1.30;;;;;;;;;;5014451;28;20037;-94
2021/08/06 06:11:24;;;;;;;1.83;1.25;;;;;;;;;;5022951;28;20049;-93
2021/08/06 06:13:49;;;;;;;3.53;1.23;;;;;;;;;;5014333;28;20036;-93
2021/08/06 06:16:15;;;;;;;3.65;1.30;;;;;;;;;;5015134;28;20450;-93
2021/08/06 06:18:40;;;;;;;1.85;1.27;;;;;;;;;;5023715;28;20107;-93
2021/08/06 06:21:07;;;;;;;6.55;1.35;;;;;;;;;;5013488;28;20109;-92
2021/08/06 06:23:33;;;;;;;5.38;1.60;;;;;;;;;;5014044;28;20065;-93
2021/08/06 06:25:58;;;;;;;3.10;1.60;;;;;;;;;;5014178;28;20104;-93
2021/08/06 06:28:23;;;;;;;6.43;1.65;;;;;;;;;;5017506;28;20028;-93
2021/08/06 06:30:48;;;;;;;5.95;1.75;;;;;;;;;;5014183;28;20022;-93
2021/08/06 06:33:13;;;;;;;4.90;1.70;;;;;;;;;;5020248;28;20033;-93
2021/08/06 06:35:39;;;;;;;4.63;1.90;;;;;;;;;;5022417;28;20030;-93
2021/08/06 06:38:04;;;;;;;2.70;1.65;;;;;;;;;;5019467;28;20029;-95
2021/08/06 06:40:29;;;;;;;4.80;1.80;;;;;;;;;;5014912;28;20022;-94
2021/08/06 06:42:55;;;;;;;4.75;1.95;;;;;;;;;;5017582;28;20047;-93
2021/08/06 06:45:23;;;;;;;6.00;1.85;;;;;;;;;;5013821;28;20142;-93
2021/08/06 06:47:50;;;;;;;4.75;1.95;;;;;;;;;;5016809;28;20088;-93
2021/08/06 06:50:16;;;;;;;7.68;1.85;;;;;;;;;;5019293;28;20033;-92
2021/08/06 06:52:42;;;;;;;6.50;2.00;;;;;;;;;;5022997;28;20018;-92
2021/08/06 06:55:08;;;;;;;5.90;1.60;;;;;;;;;;5020178;28;20021;-91
2021/08/06 06:57:56;;;;;;;6.90;1.90;;;;;;;;;;5024475;28;20040;-92
2021/08/06 07:00:22;;;;;;;6.50;1.67;;;;;;;;;;5014338;28;20421;-93
2021/08/06 07:02:48;;;;;;;4.82;2.00;;;;;;;;;;5014715;28;20021;-92
2021/08/06 07:05:13;;;;;;;3.88;2.10;;;;;;;;;;5020846;28;20492;-92
2021/08/06 07:07:39;;;;;;;5.43;2.22;;;;;;;;;;5016744;28;20056;-91
2021/08/06 07:10:23;;;;;;;4.90;1.98;;;;;;;;;;5018175;28;20017;-92
2021/08/06 07:12:50;;;;;;;4.22;2.20;;;;;;;;;;5013576;28;20366;-93
2021/08/06 07:15:15;;;;;;;9.35;2.42;;;;;;;;;;5046294;28;20017;-92
2021/08/06 07:17:41;;;;;;;6.32;2.30;;;;;;;;;;5045848;28;20033;-91
2021/08/06 07:20:08;;;;;;;7.07;2.55;;;;;;;;;;5041175;28;20022;-91
2021/08/06 07:22:34;;;;;;;5.80;2.35;;;;;;;;;;5017169;28;20026;-92
2021/08/06 07:24:59;;;;;;;7.25;2.70;;;;;;;;;;5012896;28;20113;-92
2021/08/06 07:27:24;;;;;;;5.43;2.53;;;;;;;;;;5017604;28;20391;-93
2021/08/06 07:29:49;;;;;;;8.00;2.55;;;;;;;;;;5018793;28;20478;-92
2021/08/06 07:32:15;;;;;;;5.18;3.08;;;;;;;;;;5020316;28;20052;-92
2021/08/06 07:34:40;;;;;;;6.95;2.75;;;;;;;;;;5012297;28;20659;-91
2021/08/06 07:37:05;;;;;;;10.57;3.13;;;;;;;;;;5012249;28;20365;-92
2021/08/06 07:39:30;;;;;;;6.93;2.40;;;;;;;;;;5012252;28;20386;-91
2021/08/06 07:41:56;;;;;;;11.27;4.22;;;;;;;;;;5018475;28;20550;-92
2021/08/06 07:44:21;;;;;;;8.82;2.97;;;;;;;;;;5012779;28;20025;-92
2021/08/06 07:46:47;;;;;;;8.20;2.70;;;;;;;;;;5012399;28;20032;-92
2021/08/06 07:49:12;;;;;;;7.38;2.75;;;;;;;;;;5016554;28;20405;-92
2021/08/06 07:51:38;;;;;;;6.70;2.40;;;;;;;;;;5013750;28;20064;-92
2021/08/06 07:54:03;;;;;;;7.18;2.38;;;;;;;;;;5011759;28;20025;-93
2021/08/06 07:56:29;;;;;;;7.00;2.65;;;;;;;;;;5014512;28;20014;-91
2021/08/06 07:58:54;;;;;;;7.78;2.45;;;;;;;;;;5014469;28;20158;-92
2021/08/06 08:01:19;;;;;;;5.63;2.50;;;;;;;;;;5012364;28;20022;-92
2021/08/06 08:03:45;;;;;;;9.43;2.90;;;;;;;;;;5016354;28;20030;-92
2021/08/06 08:06:11;;;;;;;5.32;2.03;;;;;;;;;;5023143;28;20025;-92
2021/08/06 08:08:36;;;;;;;4.30;1.80;;;;;;;;;;5012137;28;20030;-92
2021/08/06 08:11:01;;;;;;;3.88;1.83;;;;;;;;;;5015125;28;20068;-92
2021/08/06 08:13:26;;;;;;;5.65;1.83;;;;;;;;;;5019901;28;20531;-92
2021/08/06 08:15:52;;;;;;;5.90;2.05;;;;;;;;;;5016075;28;20014;-92
2021/08/06 08:18:17;;;;;;;5.20;1.58;;;;;;;;;;5019624;28;20034;-92
2021/08/06 08:20:42;;;;;;;7.80;1.60;;;;;;;;;;5011850;28;20101;-93
2021/08/06 08:23:08;;;;;;;4.32;2.00;;;;;;;;;;5014903;28;20751;-92
2021/08/06 08:25:33;;;;;;;7.05;2.30;;;;;;;;;;5011607;28;20034;-91
2021/08/06 08:27:58;;;;;;;4.07;1.67;;;;;;;;;;5012119;28;20022;-93
2021/08/06 08:30:24;;;;;;;4.80;1.40;;;;;;;;;;5015171;28;20481;-92
2021/08/06 08:32:49;;;;;;;3.88;1.67;;;;;;;;;;5013027;28;20045;-92
2021/08/06 08:35:14;;;;;;;6.10;1.58;;;;;;;;;;5011654;28;20018;-92
2021/08/06 08:37:39;;;;;;;3.38;1.67;;;;;;;;;;5013563;28;20045;-92
2021/08/06 08:40:05;;;;;;;3.90;1.40;;;;;;;;;;5025077;28;20032;-91
2021/08/06 08:42:31;;;;;;;5.78;1.90;;;;;;;;;;5011659;28;20483;-91
2021/08/06 08:45:00;;;;;;;3.35;1.60;;;;;;;;;;5013834;28;20179;-92
2021/08/06 08:47:26;;;;;;;3.05;1.80;;;;;;;;;;5015771;28;20580;-92
2021/08/06 08:49:52;;;;;;;4.72;1.58;;;;;;;;;;5025337;28;20036;-92
2021/08/06 08:52:18;;;;;;;4.97;1.70;;;;;;;;;;5026847;28;20076;-92
2021/08/06 08:54:43;;;;;;;2.70;1.88;;;;;;;;;;5016698;28;20440;-92
2021/08/06 08:57:08;;;;;;;4.25;1.67;;;;;;;;;;5015500;28;20048;-92
2021/08/06 08:59:34;;;;;;;3.97;1.80;;;;;;;;;;5024459;28;20030;-91
2021/08/06 09:01:59;;;;;;;4.57;1.60;;;;;;;;;;5015877;28;20692;-92
2021/08/06 09:04:29;;;;;;;5.20;1.77;;;;;;;;;;5023727;28;20076;-92
2021/08/06 09:06:54;;;;;;;4.30;2.10;;;;;;;;;;5015776;28;20405;-91
2021/08/06 09:09:21;;;;;;;4.00;1.63;;;;;;;;;;5014961;28;20029;-91
2021/08/06 09:11:47;;;;;;;4.03;1.80;;;;;;;;;;5023577;28;20040;-91
2021/08/06 09:14:32;;;;;;;3.58;1.67;;;;;;;;;;5014888;28;20045;-91
2021/08/06 09:17:08;;;;;;;3.97;2.05;;;;;;;;;;5014801;28;20109;-92
2021/08/06 09:19:43;;;;;;;2.90;1.60;;;;;;;;;;5015117;28;20362;-92
2021/08/06 09:22:09;;;;;;;2.72;1.75;;;;;;;;;;5007419;28;20485;-92
2021/08/06 09:24:34;;;;;;;4.20;1.88;;;;;;;;;;5014889;28;20014;-92
2021/08/06 09:26:59;;;;;;;2.78;1.45;;;;;;;;;;5018238;28;20477;-92
2021/08/06 09:29:25;;;;;;;11.05;1.70;;;;;;;;;;5027443;28;20032;-92
2021/08/06 09:31:50;;;;;;;4.93;1.48;;;;;;;;;;5014746;28;20032;-91
2021/08/06 09:34:21;;;;;;;1.80;1.20;;;;;;;;;;5014364;28;20036;-92
2021/08/06 09:36:52;;;;;;;1.48;1.00;;;;;;;;;;5014781;28;20289;-92
2021/08/06 09:39:18;;;;;;;2.13;1.30;;;;;;;;;;5039997;28;20108;-92
2021/08/06 09:41:44;;;;;;;7.47;1.42;;;;;;;;;;5048104;28;20362;-92
2021/08/06 09:44:16;;;;;;;1.63;0.90;;;;;;;;;;5022365;28;20022;-91
2021/08/06 09:46:41;;;;;;;3.45;1.20;;;;;;;;;;5014554;28;20028;-91
2021/08/06 09:49:07;;;;;;;4.03;1.02;;;;;;;;;;5023694;28;20026;-92
2021/08/06 09:51:35;;;;;;;2.28;0.90;;;;;;;;;;5023318;28;20458;-94
2021/08/06 09:54:00;;;;;;;4.55;0.82;;;;;;;;;;5014197;28;20390;-92
2021/08/06 09:56:26;;;;;;;1.45;0.80;;;;;;;;;;5020970;28;20026;-92
2021/08/06 09:58:57;;;;;;;3.53;0.70;;;;;;;;;;5014721;28;20029;-91
2021/08/06 10:01:23;;;;;;;1.95;0.80;;;;;;;;;;5017143;28;20013;-94
2021/08/06 10:03:48;;;;;;;4.35;0.80;;;;;;;;;;5019372;28;20036;-91
2021/08/06 10:06:15;;;;;;;2.65;1.20;;;;;;;;;;5013938;28;20069;-92
2021/08/06 10:08:41;;;;;;;1.75;0.90;;;;;;;;;;5021166;28;20026;-94
2021/08/06 10:11:07;;;;;;;4.97;0.77;;;;;;;;;;5014513;28;20098;-92
2021/08/06 10:13:32;;;;;;;2.55;0.88;;;;;;;;;;5014365;28;20089;-93
2021/08/06 10:15:57;;;;;;;2.63;0.70;;;;;;;;;;5018199;28;20021;-91
2021/08/06 10:18:23;;;;;;;1.67;0.73;;;;;;;;;;5024503;28;20021;-92
2021/08/06 10:20:49;;;;;;;2.65;1.05;;;;;;;;;;5014055;28;20050;-93
2021/08/06 10:23:14;;;;;;;3.35;0.70;;;;;;;;;;5014401;28;20030;-92
2021/08/06 10:25:40;;;;;;;4.72;0.93;;;;;;;;;;5014417;28;20018;-93
2021/08/06 10:28:05;;;;;;;0.80;0.60;;;;;;;;;;5017225;28;20056;-93
2021/08/06 10:30:32;;;;;;;2.55;0.80;;;;;;;;;;5013993;28;20026;-93
2021/08/06 10:33:12;;;;;;;3.97;1.00;;;;;;;;;;5028314;28;20472;-92
2021/08/06 10:36:05;;;;;;;2.58;0.80;;;;;;;;;;5046573;28;20061;-92
2021/08/06 10:38:33;;;;;;;2.00;0.80;;;;;;;;;;5024036;28;20037;-92
2021/08/06 10:40:59;;;;;;;3.30;0.95;;;;;;;;;;5014055;28;20026;-92
2021/08/06 10:43:35;;;;;;;1.55;0.80;;;;;;;;;;5013636;28;20076;-91
2021/08/06 10:46:00;;;;;;;3.72;0.90;;;;;;;;;;5025562;28;21138;-92
2021/08/06 10:48:29;;;;;;;1.50;0.90;;;;;;;;;;5013506;28;20030;-92
2021/08/06 10:51:13;;;;;;;2.92;1.02;;;;;;;;;;5018654;28;20105;-93
2021/08/06 10:53:39;;;;;;;2.15;0.82;;;;;;;;;;5015068;28;20076;-92
2021/08/06 10:56:16;;;;;;;2.13;0.70;;;;;;;;;;5013636;28;20022;-94
2021/08/06 11:01:28;;;;;;;1.83;0.63;;;;;;;;;;5014946;28;20080;-93
2021/08/06 11:04:27;;;;;;;3.25;0.70;;;;;;;;;;5059344;28;20378;-92
2021/08/06 11:06:53;;;;;;;3.97;0.80;;;;;;;;;;5020473;28;20096;-93
2021/08/06 11:09:25;;;;;;;3.10;0.82;;;;;;;;;;5021386;28;20029;-92
2021/08/06 11:11:57;;;;;;;2.50;0.80;;;;;;;;;;5047859;28;20398;-93
2021/08/06 11:14:32;;;;;;;4.18;0.95;;;;;;;;;;5015347;28;20053;-92
2021/08/06 11:16:57;;;;;;;2.40;1.02;;;;;;;;;;5054728;28;20481;-92
2021/08/06 11:19:27;;;;;;;4.72;1.00;;;;;;;;;;5015941;28;20022;-91
2021/08/06 11:21:52;;;;;;;4.47;1.20;;;;;;;;;;5012700;28;20048;-92
2021/08/06 11:24:17;;;;;;;3.08;1.00;;;;;;;;;;5020839;28;20362;-91
2021/08/06 11:26:47;;;;;;;3.55;0.77;;;;;;;;;;5013266;28;20113;-91
2021/08/06 11:29:13;;;;;;;1.45;0.70;;;;;;;;;;5013090;28;20072;-92
2021/08/06 11:31:38;;;;;;;4.20;0.70;;;;;;;;;;5012628;28;20021;-92
2021/08/06 11:34:04;;;;;;;1.55;0.68;;;;;;;;;;5015140;28;20134;-92
2021/08/06 11:36:30;;;;;;;4.43;0.50;;;;;;;;;;5012691;28;20169;-92
2021/08/06 11:39:01;;;;;;;0.85;0.60;;;;;;;;;;5012623;28;20060;-92
2021/08/06 11:41:26;;;;;;;2.78;0.52;;;;;;;;;;5013426;28;20175;-93
2021/08/06 11:43:52;;;;;;;3.10;0.88;;;;;;;;;;5012544;28;20129;-91
2021/08/06 11:46:17;;;;;;;2.40;0.88;;;;;;;;;;5012605;28;20560;-92
2021/08/06 11:48:45;;;;;;;3.95;1.13;;;;;;;;;;5024917;28;20017;-93
2021/08/06 11:51:10;;;;;;;1.33;0.70;;;;;;;;;;5048011;28;20030;-93
2021/08/06 11:53:36;;;;;;;2.17;0.65;;;;;;;;;;5012560;28;20041;-93
2021/08/06 11:56:10;;;;;;;3.95;1.17;;;;;;;;;;5012388;28;20465;-94
2021/08/06 11:58:37;;;;;;;2.92;0.93;;;;;;;;;;5012508;28;20104;-95
2021/08/06 12:01:03;;;;;;;2.92;1.10;;;;;;;;;;5020140;28;20018;-94
2021/08/06 12:03:28;;;;;;;3.47;1.23;;;;;;;;;;5016490;28;20492;-93
2021/08/06 12:06:00;;;;;;;1.58;1.00;;;;;;;;;;5014843;28;20025;-93
2021/08/06 12:08:27;;;;;;;3.47;1.38;;;;;;;;;;5024407;28;20029;-94
2021/08/06 12:10:54;;;;;;;7.43;1.50;;;;;;;;;;5016049;28;20033;-93
2021/08/06 12:13:22;;;;;;;9.70;2.10;;;;;;;;;;5014572;28;20117;-94
2021/08/06 12:15:57;;;;;;;5.00;2.50;;;;;;;;;;5022171;28;20116;-93
2021/08/06 12:18:22;;;;;;;8.00;3.40;;;;;;;;;;5014737;28;20056;-93
2021/08/06 12:20:55;;;;;;;6.78;1.45;;;;;;;;;;5025260;28;20544;-93
2021/08/06 12:23:21;;;;;;;3.17;1.02;;;;;;;;;;5014771;28;20065;-92
2021/08/06 12:26:09;;;;;;;2.38;1.13;;;;;;;;;;5012281;28;20022;-93
2021/08/06 12:28:36;;;;;;;3.35;1.33;;;;;;;;;;5016120;28;20373;-92
2021/08/06 12:31:07;;;;;;;1.20;0.80;;;;;;;;;;5012314;28;20018;-93
2021/08/06 12:33:33;;;;;;;1.75;0.73;;;;;;;;;;5012340;28;20022;-94
2021/08/06 12:36:08;;;;;;;1.20;0.70;;;;;;;;;;5012579;28;20045;-93
2021/08/06 12:38:33;;;;;;;1.52;1.00;;;;;;;;;;5014319;28;20025;-93
2021/08/06 12:41:00;;;;;;;3.65;0.90;;;;;;;;;;5012352;28;20485;-94
2021/08/06 12:43:25;;;;;;;2.17;0.90;;;;;;;;;;5012210;28;20030;-94
2021/08/06 12:46:09;;;;;;;0.98;0.80;;;;;;;;;;5013805;28;20022;-92
2021/08/06 12:48:34;;;;;;;4.43;0.90;;;;;;;;;;5012388;28;20113;-93
2021/08/06 12:51:15;;;;;;;3.70;0.85;;;;;;;;;;5012242;28;20053;-93
2021/08/06 12:53:43;;;;;;;1.55;0.70;;;;;;;;;;5015436;28;20521;-94
2021/08/06 12:56:09;;;;;;;5.60;1.02;;;;;;;;;;5012060;28;20014;-94
2021/08/06 12:58:34;;;;;;;2.97;1.05;;;;;;;;;;5020700;28;20432;-93
2021/08/06 13:01:00;;;;;;;3.88;1.40;;;;;;;;;;5012290;28;20029;-95
2021/08/06 13:03:26;;;;;;;2.35;1.40;;;;;;;;;;5012001;28;20029;-91
2021/08/06 13:05:52;;;;;;;3.13;1.35;;;;;;;;;;5012039;28;20028;-93
2021/08/06 13:08:18;;;;;;;4.28;1.08;;;;;;;;;;5011902;28;20042;-93
2021/08/06 13:10:44;;;;;;;5.03;1.08;;;;;;;;;;5011531;28;20211;-92
2021/08/06 13:13:11;;;;;;;1.50;1.15;;;;;;;;;;5016364;28;20052;-92
2021/08/06 13:15:36;;;;;;;2.60;1.20;;;;;;;;;;5014546;28;20026;-93
2021/08/06 13:18:02;;;;;;;4.40;1.33;;;;;;;;;;5011892;28;20029;-92
2021/08/06 13:20:27;;;;;;;3.92;1.50;;;;;;;;;;5012175;28;20022;-93
2021/08/06 13:22:52;;;;;;;2.65;1.20;;;;;;;;;;5020493;28;20028;-93
2021/08/06 13:25:19;;;;;;;2.33;1.10;;;;;;;;;;5023535;28;20036;-93
2021/08/06 13:27:45;;;;;;;4.22;1.20;;;;;;;;;;5021426;28;20025;-92
2021/08/06 13:30:12;;;;;;;1.95;1.17;;;;;;;;;;5012242;28;20417;-92
2021/08/06 13:32:37;;;;;;;1.52;1.00;;;;;;;;;;5022706;28;20362;-93
2021/08/06 13:35:03;;;;;;;1.77;0.98;;;;;;;;;;5019773;28;20053;-94
2021/08/06 13:37:29;;;;;;;0.60;0.60;;;;;;;;;;5022237;28;20022;-93
2021/08/06 13:39:54;;;;;;;1.38;0.75;;;;;;;;;;5023239;28;20113;-93
2021/08/06 13:42:19;;;;;;;8.77;1.45;;;;;;;;;;5019659;28;20120;-92
2021/08/06 13:44:44;;;;;;;3.47;0.95;;;;;;;;;;5023768;28;20026;-93
2021/08/06 13:47:10;;;;;;;2.88;0.85;;;;;;;;;;5015135;28;20378;-93
2021/08/06 13:49:35;;;;;;;3.47;0.80;;;;;;;;;;5015320;28;20056;-92
2021/08/06 13:52:00;;;;;;;3.72;0.70;;;;;;;;;;5015649;28;20097;-92
2021/08/06 13:54:26;;;;;;;1.55;0.63;;;;;;;;;;5021946;28;20051;-93
2021/08/06 13:56:51;;;;;;;0.70;0.60;;;;;;;;;;5017410;28;20046;-92
2021/08/06 13:59:17;;;;;;;0.93;0.70;;;;;;;;;;5014613;28;20033;-93
2021/08/06 14:01:42;;;;;;;3.25;0.85;;;;;;;;;;5014915;28;20026;-93
2021/08/06 14:04:07;;;;;;;1.00;0.65;;;;;;;;;;5016579;28;20112;-93
2021/08/06 14:06:33;;;;;;;1.35;0.70;;;;;;;;;;5021471;28;20018;-93
2021/08/06 14:08:58;;;;;;;1.67;0.90;;;;;;;;;;5021661;28;20101;-93
2021/08/06 14:11:23;;;;;;;1.40;0.70;;;;;;;;;;5029462;28;20026;-94
2021/08/06 14:13:48;;;;;;;1.95;0.60;;;;;;;;;;5026031;28;20034;-93
2021/08/06 14:16:14;;;;;;;1.67;0.60;;;;;;;;;;5029324;28;20052;-93
2021/08/06 14:18:39;;;;;;;1.10;0.68;;;;;;;;;;5014571;28;20041;-93
2021/08/06 14:21:05;;;;;;;1.40;0.80;;;;;;;;;;5020067;28;20029;-93
2021/08/06 14:23:32;;;;;;;1.17;0.60;;;;;;;;;;5015423;28;20129;-93
2021/08/06 14:25:58;;;;;;;1.08;0.70;;;;;;;;;;5014370;28;20430;-93
2021/08/06 14:28:23;;;;;;;5.18;0.80;;;;;;;;;;5015592;28;20018;-93
2021/08/06 14:30:48;;;;;;;1.70;1.02;;;;;;;;;;5021635;28;20041;-93
2021/08/06 14:33:14;;;;;;;1.15;0.73;;;;;;;;;;5013889;28;20058;-92
2021/08/06 14:35:39;;;;;;;2.90;1.00;;;;;;;;;;5017159;28;20052;-91
2021/08/06 14:38:04;;;;;;;2.38;1.00;;;;;;;;;;5021386;28;20184;-93
2021/08/06 14:40:29;;;;;;;2.45;1.10;;;;;;;;;;5013915;28;20076;-93
2021/08/06 14:42:54;;;;;;;1.35;0.82;;;;;;;;;;5013957;28;20021;-92